Millers Tavrn, Virginia
Current Conditions -  °F | °C
As of 12:55 AM on Sunday 26 Oct 2014 (Local Time) from KXSA Reporting Station
Clear Clear  
Wind Chill: 13°   Ceiling: Unl
Heat Index: 13°   Visibility: 10mi
Dew Point:   Wind: 0mph
Humidity: 61%   Direction: NA
Pressure: 29.74"   Gusts: NA
Location:  37.8283°N, 76.9455°W
Report Text: KXSA 260455Z AUTO 00000KT 10SM CLR 13/05 A2974 RMK AO2 T01250052
Loading
Personal Weather Stations






























Interactive Weather Map
Tropical Storm Tracking
New forecast layout! Learn more

10-Day Weather Forecast

Advertisements
Track Severe Weather on mobile